Date,TemperatureHighF,TemperatureAvgF,TemperatureLowF,DewpointHighF,DewpointAvgF,DewpointLowF,HumidityHigh,HumidityAvg,HumidityLow,PressureMaxIn,PressureMinIn,WindSpeedMaxMPH,WindSpeedAvgMPH,GustSpeedMaxMPH,PrecipitationSumIn
2014-1-5,45,45,45,32,32,32,60,60,60,30.21,30.21,1,1,4,0.00
2014-1-6,45,45,45,32,32,32,60,60,60,30.21,30.21,1,1,4,0.00
2014-1-7,45,45,45,32,32,32,60,60,60,30.21,30.21,1,1,4,0.00
2014-1-8,45,45,45,32,32,32,60,60,60,30.21,30.21,1,1,4,0.00
2014-1-9,45,45,45,32,32,32,60,60,60,30.21,30.21,1,1,4,0.00
2014-1-10,45,45,45,32,32,32,60,60,60,30.21,30.21,1,1,4,0.00
2014-1-11,73,51,42,38,33,31,65,53,23,30.21,30.04,17,3,28,0.00
2014-1-12,61,52,41,40,36,30,80,57,32,30.29,30.07,14,5,21,0.00
2014-1-18,61,56,49,12,9,7,19,15,14,30.15,30.14,3,2,4,0.00
2014-1-19,60,44,28,14,11,6,41,28,15,30.24,30.21,2,1,4,0.00
2014-1-20,73,46,26,16,11,7,45,27,10,30.31,30.18,4,1,8,0.00
2014-1-21,70,49,31,18,14,8,45,26,11,30.33,30.17,3,1,6,0.00
2014-1-23,68,57,32,18,15,10,41,20,12,30.22,30.01,12,5,0,0.00
2014-1-24,53,42,38,22,17,15,43,36,29,30.33,30.22,2,0,3,0.00
2014-1-26,55,51,46,28,26,23,43,38,33,30.04,30.01,4,1,7,0.00
2014-1-27,72,54,36,28,23,18,57,31,14,30.10,29.99,10,3,14,0.00
2014-1-28,73,53,35,30,23,16,51,34,15,30.17,30.07,7,2,10,0.00
2014-1-29,80,56,36,44,33,22,59,44,20,30.13,29.86,14,4,21,0.00
2014-1-30,61,56,50,48,42,33,87,62,37,29.85,29.72,15,7,27,0.00
2014-1-31,50,46,41,46,35,21,88,64,42,29.99,29.77,19,8,30,0.00
2014-2-1,58,44,31,29,22,8,76,47,14,30.11,29.97,13,4,17,0.00
2014-2-2,44,28,23,23,19,15,77,67,41,30.11,30.04,3,1,4,0.00
2014-2-3,41,38,32,31,29,26,78,70,66,30.00,29.97,6,2,9,0.00
2014-2-4,59,43,28,34,28,19,88,59,24,30.08,29.97,11,4,15,0.00
2014-2-5,60,44,29,31,28,24,80,55,27,30.14,29.99,10,3,16,0.00
2014-2-8,71,60,51,46,41,25,77,51,19,30.19,30.08,16,8,23,0.00
2014-2-9,74,57,44,45,39,18,90,57,14,30.12,29.96,20,6,28,0.00
2014-2-10,66,59,53,47,42,37,76,55,35,30.10,29.98,18,10,27,0.00
2014-2-11,71,55,42,44,40,31,91,60,30,30.15,30.02,10,2,17,0.00
2014-2-12,86,58,37,33,24,6,72,35,9,30.20,30.03,12,3,19,0.00
2014-2-13,82,67,55,24,16,1,25,15,8,30.07,29.94,16,8,25,0.00
2014-2-14,84,66,50,27,16,6,29,16,6,30.02,29.93,13,5,21,0.00
2014-2-15,84,58,42,25,15,10,31,20,8,30.02,29.91,12,3,20,0.00
2014-2-16,76,61,44,42,31,16,60,35,18,30.03,29.90,12,5,19,0.00
2014-2-17,76,55,35,40,31,19,69,45,12,30.06,29.90,12,4,20,0.00
2014-2-18,78,57,42,38,33,26,77,45,16,30.06,29.92,9,3,14,0.00
2014-2-19,66,55,45,38,33,26,61,44,23,30.01,29.85,16,7,26,0.00
2014-2-20,73,55,39,40,27,15,76,39,13,30.16,29.99,13,3,30,0.00
2014-2-21,75,53,33,32,22,14,52,33,12,30.09,29.89,6,2,9,0.00
2014-2-22,75,55,35,33,26,20,57,36,14,29.96,29.83,6,2,10,0.00
2014-2-23,78,56,36,33,27,22,63,37,14,29.99,29.87,5,2,10,0.00
2014-2-24,80,56,37,36,28,22,58,37,13,30.01,29.87,7,2,10,0.00
2014-2-25,47,44,40,29,28,24,61,53,48,29.95,29.91,3,2,6,0.00
2014-2-26,61,54,48,48,43,30,89,69,36,29.97,29.88,12,7,0,0.02
2014-2-27,66,56,50,49,44,35,90,67,38,29.94,29.77,11,7,0,0.02
2014-2-28,59,49,46,52,45,34,96,87,47,29.78,29.53,16,6,28,1.23
2014-3-1,51,46,45,47,43,42,93,89,83,29.79,29.68,8,4,16,0.10
2014-3-2,57,48,39,48,43,38,97,86,72,30.10,29.93,9,3,17,0.00
2014-3-3,66,55,39,49,45,37,95,71,45,30.15,30.01,6,2,0,0.00
2014-3-4,66,56,46,46,44,42,88,67,43,30.03,29.94,16,5,26,0.00
2014-3-5,77,58,40,47,42,37,94,62,26,30.11,29.97,5,2,11,0.00
2014-3-6,72,60,50,53,46,36,79,60,43,30.01,29.89,19,8,29,0.00
2014-3-7,62,51,45,38,35,28,73,54,32,30.05,29.92,12,4,24,0.00
2014-3-8,57,55,54,29,28,26,39,34,30,30.20,30.19,4,2,5,0.00
2014-3-9,79,58,43,38,30,16,71,40,11,30.22,30.06,8,2,18,0.00
2014-3-10,74,57,44,42,32,-100,73,44,18,30.08,29.94,14,-11,23,0.00
2014-3-11,71,58,45,42,31,20,77,41,17,30.06,29.97,10,4,20,0.00
2014-3-12,69,55,40,26,20,13,55,26,15,30.14,29.97,10,5,25,0.00
2014-3-13,73,56,36,29,22,15,64,31,12,29.99,29.89,13,5,20,0.00
2014-3-14,78,63,47,29,21,7,46,22,7,30.07,29.96,12,5,19,0.00
2014-3-15,82,64,45,37,30,19,55,30,13,30.27,30.07,11,3,14,0.00
2014-3-16,86,65,40,39,30,13,76,36,7,30.30,30.05,8,3,13,0.00
2014-3-17,72,63,56,41,33,22,52,34,16,30.06,29.72,20,11,33,0.00
2014-3-18,72,58,44,39,23,8,71,33,10,29.97,29.76,10,4,21,0.00
2014-3-19,75,55,32,22,14,6,60,26,8,30.12,29.97,6,2,14,0.00
2014-3-20,77,57,38,39,28,19,55,36,14,30.05,29.84,9,3,18,0.00
2014-3-21,74,59,43,46,38,30,70,48,22,29.89,29.79,13,5,24,0.00
2014-3-22,80,62,50,44,36,30,65,40,17,29.99,29.84,9,4,18,0.00
2014-3-23,80,60,37,36,29,20,56,34,14,30.07,29.94,7,3,12,0.00
2014-3-24,84,64,44,36,29,12,64,33,7,30.07,29.90,9,3,16,0.00
2014-3-25,80,59,42,48,37,21,78,48,12,29.94,29.71,15,5,24,0.00
2014-3-26,62,53,47,45,40,32,87,62,36,29.88,29.73,15,9,24,0.00
2014-3-27,60,52,46,39,36,33,70,55,41,30.05,29.87,16,10,24,0.00
2014-3-28,76,59,47,37,34,25,66,42,18,30.13,30.00,10,3,15,0.00
2014-3-29,79,60,42,44,35,25,64,41,19,30.07,29.85,15,6,27,0.00
2014-3-30,61,53,46,44,36,29,74,54,30,30.00,29.84,17,8,26,0.00
2014-3-31,64,52,40,39,33,26,74,51,29,29.99,29.82,16,8,32,0.00
2014-4-1,57,47,40,42,36,19,90,69,24,29.92,29.85,13,7,22,0.08
2014-4-2,44,41,39,39,36,32,86,81,68,29.88,29.85,11,5,16,0.00
2014-4-3,69,61,49,41,32,19,57,36,17,30.11,29.97,9,4,17,0.00
2014-4-4,64,53,43,40,32,14,75,49,17,30.00,29.83,12,6,29,0.00
2014-4-5,62,53,44,39,37,35,82,57,37,30.06,29.85,18,10,28,0.00
2014-4-6,80,61,42,41,35,25,76,44,15,30.16,30.00,12,4,18,0.00
2014-4-7,87,64,40,39,31,20,71,36,9,30.17,30.02,9,2,16,0.00
2014-4-8,88,66,44,39,30,11,61,31,6,30.11,29.95,8,3,14,0.00
2014-4-9,89,68,48,38,24,2,57,26,4,30.00,29.86,10,3,20,0.00
2014-4-10,88,68,47,34,24,7,51,23,5,29.93,29.80,10,4,19,0.00
2014-4-11,83,69,55,37,22,-1,45,21,4,29.86,29.69,13,5,24,0.00
2014-4-12,80,67,56,42,35,24,51,31,21,29.74,29.64,13,6,27,0.00
2014-4-13,82,68,52,43,38,32,65,37,18,29.90,29.72,14,6,23,0.00
2014-4-14,85,67,47,42,23,9,66,27,6,30.09,29.90,8,3,21,0.00
2014-4-15,84,66,48,40,30,19,44,27,12,29.97,29.72,11,3,19,0.00
2014-4-16,88,72,59,36,28,8,38,22,7,29.75,29.61,14,5,20,0.00
2014-4-17,84,68,49,49,37,28,66,35,16,29.77,29.68,11,4,24,0.00
2014-4-18,81,65,56,50,46,39,74,51,23,29.83,29.70,10,5,20,0.00
2014-4-19,82,67,48,48,44,40,76,47,25,29.90,29.81,12,4,19,0.00
2014-4-20,87,73,55,42,36,30,41,27,15,29.97,29.87,10,4,20,0.00
2014-4-21,86,67,44,47,35,22,53,34,10,29.98,29.83,12,4,21,0.00
2014-4-22,66,60,54,42,31,18,55,34,19,29.90,29.78,21,10,30,0.00
2014-4-23,78,60,43,34,26,15,56,31,10,29.95,29.84,12,5,25,0.00
2014-4-24,80,62,42,39,32,22,55,34,12,29.97,29.80,13,5,20,0.00
2014-4-25,68,59,46,47,42,37,91,57,41,29.83,29.65,18,9,31,0.05
2014-4-26,55,49,40,39,36,30,83,60,46,29.94,29.63,21,12,34,0.03
2014-4-27,69,57,46,37,35,30,70,46,27,29.99,29.90,20,9,29,0.00
2014-4-28,78,63,50,42,38,31,72,41,19,30.05,29.92,19,9,25,0.00
2014-4-29,84,67,45,39,22,9,70,26,6,30.18,30.01,15,5,25,0.00
2014-4-30,84,68,47,20,12,0,33,13,4,30.18,29.98,11,5,21,0.00
2014-5-1,91,71,46,34,15,-1,32,14,3,30.14,29.93,10,4,21,0.00
2014-5-2,95,71,54,40,30,20,48,25,7,29.98,29.83,8,2,14,0.00
2014-5-3,89,70,61,36,30,16,37,24,8,29.87,29.79,9,5,15,0.00
2014-5-4,85,75,59,44,32,14,57,26,7,29.85,29.75,13,8,24,0.00
2014-5-5,75,63,54,48,43,28,73,51,22,29.85,29.73,13,8,27,0.00
2014-5-6,61,54,46,44,36,32,68,50,36,29.78,29.73,18,11,27,0.00
2014-5-7,71,61,49,42,36,25,67,42,19,29.85,29.76,17,9,26,0.00
2014-5-8,79,64,50,41,36,25,71,39,16,29.95,29.85,14,6,27,0.00
2014-5-9,73,64,56,48,43,34,67,47,31,29.97,29.82,19,10,32,0.00
2014-5-10,70,62,52,43,33,20,61,36,15,29.87,29.73,22,11,32,0.00
2014-5-11,78,64,49,35,21,1,53,24,5,29.97,29.82,17,8,27,0.00
2014-5-12,86,68,43,26,20,7,47,19,5,30.09,29.93,8,3,18,0.00
2014-5-13,86,71,51,28,17,4,31,15,5,30.15,30.00,11,4,28,0.00
2014-5-14,92,75,56,26,15,8,20,11,5,30.13,29.97,11,5,19,0.00
2014-5-15,98,75,48,36,21,2,31,16,3,30.06,29.89,8,2,14,0.00
2014-5-16,95,80,68,39,29,17,28,17,6,29.94,29.75,13,7,23,0.00
2014-5-17,94,79,62,35,27,12,30,17,5,29.80,29.66,15,7,24,0.00
2014-5-18,81,70,60,42,36,27,45,30,18,29.74,29.67,20,10,29,0.00
2014-5-19,78,65,55,48,40,20,67,43,12,29.79,29.70,15,9,25,0.00
2014-5-20,67,58,50,45,38,29,73,49,30,29.87,29.79,15,7,25,0.00
2014-5-21,75,63,51,44,41,37,64,47,28,29.87,29.79,13,6,18,0.00
2014-5-22,80,61,46,52,44,37,80,55,22,29.93,29.83,13,3,19,0.01
2014-5-23,86,69,48,49,42,34,86,44,18,29.90,29.78,15,6,26,0.00
2014-5-24,90,79,69,46,42,35,42,28,15,29.82,29.67,17,8,31,0.00
2014-5-25,98,82,66,51,45,37,53,30,13,29.81,29.68,12,4,21,0.00
2014-5-26,97,83,70,51,44,30,49,27,12,29.79,29.71,9,5,17,0.00
2014-5-27,98,82,65,44,34,10,45,21,4,29.82,29.72,12,5,21,0.00
2014-5-28,89,76,65,35,30,24,30,20,10,29.77,29.68,13,7,20,0.00
2014-5-29,89,73,57,44,27,19,29,19,10,29.79,29.72,11,5,22,0.00
2014-5-30,92,73,49,36,25,14,43,19,6,29.80,29.70,11,4,23,0.00
2014-5-31,91,75,55,35,28,22,34,20,9,29.78,29.70,12,5,23,0.00
2014-6-1,93,75,57,43,29,7,36,21,4,29.78,29.66,11,4,20,0.00
2014-6-2,88,73,55,37,24,6,38,20,5,29.75,29.68,18,7,33,0.00
2014-6-3,92,73,49,32,23,9,35,18,5,29.79,29.69,11,4,21,0.00
2014-6-4,95,76,54,38,32,22,50,23,9,29.74,29.64,12,4,24,0.00
2014-6-5,101,78,55,43,35,24,45,24,7,29.73,29.59,10,3,21,0.00
2014-6-6,93,81,67,45,35,24,37,21,9,29.64,29.56,11,5,20,0.00
2014-6-7,101,86,69,41,33,26,35,17,8,29.63,29.53,14,6,26,0.00
2014-6-8,108,90,72,49,37,17,33,18,5,29.65,29.54,12,4,19,0.00
2014-6-9,104,85,62,47,35,22,47,22,6,29.65,29.55,10,3,22,0.00
2014-6-10,96,80,63,50,41,33,46,27,12,29.63,29.55,14,6,27,0.00
2014-6-11,92,78,66,50,43,34,47,30,20,29.71,29.62,14,8,28,0.00
2014-6-12,92,80,67,49,39,20,41,25,15,29.74,29.68,15,8,26,0.00
2014-6-13,87,76,63,44,34,25,43,24,12,29.76,29.68,15,8,26,0.00
2014-6-14,94,76,59,37,26,15,38,18,6,29.76,29.65,11,4,21,0.00
2014-6-15,84,74,62,48,39,26,59,31,15,29.69,29.60,16,9,30,0.00
2014-6-16,81,69,57,48,43,31,66,42,18,29.74,29.67,15,8,31,0.00
2014-6-17,80,69,58,50,42,29,58,38,19,29.76,29.70,15,8,28,0.00
2014-6-18,92,74,55,47,32,22,43,24,8,29.85,29.74,9,3,19,0.00
2014-6-19,100,80,58,38,31,21,37,19,7,29.87,29.75,8,3,14,0.00
2014-6-20,98,82,63,38,28,13,34,17,5,29.82,29.70,12,4,26,0.00
2014-6-21,95,80,62,52,37,19,42,23,7,29.73,29.64,14,6,25,0.00
2014-6-22,97,81,60,44,25,14,37,14,6,29.72,29.65,11,6,26,0.00
2014-6-23,95,82,65,48,34,23,39,19,8,29.75,29.67,11,5,22,0.00
2014-6-24,96,83,68,43,36,29,36,20,10,29.76,29.68,15,7,22,0.00
2014-6-25,96,83,72,46,41,29,35,24,10,29.73,29.64,15,8,26,0.00
2014-6-26,84,75,64,52,49,44,56,41,27,29.75,29.67,20,11,30,0.00
2014-6-27,91,77,63,50,45,40,56,35,18,29.75,29.65,23,9,29,0.00
2014-6-28,98,82,68,54,45,28,55,30,9,29.70,29.63,11,5,17,0.00
2014-6-29,107,85,65,49,40,29,42,23,9,29.74,29.62,12,4,20,0.00
2014-6-30,105,85,66,54,42,30,39,23,10,29.71,29.60,12,4,16,0.00
2014-7-1,102,85,65,50,44,26,47,26,8,29.67,29.60,12,5,18,0.00
2014-7-2,100,85,67,50,41,24,46,25,7,29.71,29.64,12,5,22,0.00
2014-7-3,101,85,67,49,36,20,40,21,6,29.77,29.68,10,5,17,0.00
2014-7-4,97,83,66,57,48,35,44,30,18,29.86,29.77,11,5,24,0.00
2014-7-5,100,85,71,51,46,39,46,27,16,29.91,29.79,14,6,22,0.00
2014-7-6,102,88,74,44,39,31,32,19,12,29.87,29.72,11,4,20,0.00
2014-7-7,102,88,72,44,34,20,25,16,6,29.76,29.65,11,4,22,0.00
2014-7-8,104,86,70,51,43,30,41,24,10,29.76,29.66,13,4,23,0.00
2014-7-9,100,84,70,53,46,36,45,28,11,29.78,29.66,13,6,26,0.00
2014-7-10,86,74,66,50,45,40,51,37,24,29.78,29.71,12,6,23,0.00
2014-7-11,93,80,65,51,45,37,50,30,16,29.83,29.77,10,5,21,0.00
2014-7-12,106,84,63,52,47,32,56,32,9,29.86,29.75,10,4,17,0.00
2014-7-13,112,90,71,54,48,39,46,27,10,29.82,29.65,11,3,16,0.00
2014-7-14,99,87,79,60,54,48,53,34,20,29.79,29.70,8,3,14,0.00
2014-7-15,96,83,71,62,57,38,68,44,23,29.86,29.76,9,5,17,0.00
2014-7-16,93,80,68,59,50,36,68,40,14,29.83,29.74,14,7,29,0.00
2014-7-17,89,76,67,52,44,36,49,33,17,29.84,29.74,13,8,28,0.00
2014-7-18,94,77,62,53,46,35,56,36,15,29.85,29.75,11,5,19,0.00
2014-7-19,91,77,66,63,52,43,70,44,20,29.83,29.76,6,2,10,0.01
2014-7-20,98,78,62,57,55,49,73,48,21,29.83,29.74,13,5,24,0.00
2014-7-21,92,79,65,56,50,41,67,40,18,29.88,29.82,12,5,26,0.00
2014-7-22,97,81,65,55,48,31,63,36,12,29.92,29.84,11,4,19,0.00
2014-7-23,101,82,67,54,46,32,51,32,10,29.91,29.76,9,5,17,0.00
2014-7-24,106,85,66,56,45,9,65,33,3,29.82,29.62,9,4,15,0.00
2014-7-25,100,84,67,52,41,21,41,25,6,29.78,29.69,13,6,28,0.00
2014-7-26,101,86,73,50,43,29,42,24,10,29.83,29.72,10,5,18,0.00
2014-7-27,100,87,74,48,43,37,34,22,14,29.84,29.74,13,4,26,0.00
2014-7-28,94,85,75,55,46,38,39,26,20,29.94,29.84,10,2,16,0.00
2014-7-29,102,85,67,49,45,41,43,26,14,29.94,29.78,11,3,17,0.00
2014-7-30,102,89,78,51,48,46,35,25,16,29.83,29.74,13,4,20,0.00
2014-7-31,106,88,70,52,49,46,47,29,14,29.82,29.68,10,3,16,0.00
2014-8-1,106,89,74,55,48,39,40,26,11,29.76,29.66,11,4,17,0.00
2014-8-2,100,84,71,60,48,40,55,31,13,29.81,29.71,11,4,20,0.01
2014-8-3,80,75,70,65,59,54,82,58,44,29.90,29.76,11,4,18,0.04
2014-8-4,90,78,66,59,47,25,74,39,13,29.87,29.76,15,6,28,0.00
2014-8-5,94,78,62,53,40,28,51,28,10,29.90,29.81,11,4,20,0.00
2014-8-6,95,79,64,55,49,40,67,39,16,29.87,29.76,10,4,19,0.00
2014-8-7,101,80,60,55,48,28,70,37,8,29.82,29.70,8,3,17,0.00
2014-8-8,102,83,64,55,46,30,59,32,9,29.78,29.69,9,2,17,0.00
2014-8-9,103,82,63,50,44,32,56,30,9,29.81,29.72,12,3,20,0.00
2014-8-10,97,81,60,51,44,36,51,29,14,29.85,29.77,10,3,18,0.00
2014-8-11,96,82,67,53,47,41,52,30,19,29.84,29.75,9,4,16,0.00
2014-8-12,100,84,69,55,50,44,47,33,19,29.84,29.70,10,4,19,0.00
2014-8-13,92,79,66,54,50,42,60,38,18,29.82,29.75,10,5,20,0.00
2014-8-14,93,78,63,53,41,22,59,32,10,29.85,29.78,9,5,17,0.00
2014-8-15,96,79,57,51,39,24,39,26,14,29.90,29.79,10,5,18,0.00
2014-8-16,100,83,65,48,41,34,40,25,14,29.91,29.77,11,4,17,0.00
2014-8-17,104,85,61,42,37,31,38,20,10,29.84,29.70,10,3,19,0.00
2014-8-18,100,83,65,47,39,26,44,23,9,29.74,29.60,12,4,26,0.00
2014-8-19,87,75,64,57,47,38,65,40,20,29.73,29.63,16,7,29,0.00
2014-8-20,90,73,55,54,45,35,74,41,16,29.83,29.73,9,4,16,0.00
2014-8-21,94,77,59,56,49,42,57,39,21,29.85,29.74,9,3,15,0.00
2014-8-22,90,78,66,57,54,49,59,44,28,29.84,29.73,15,6,27,0.00
2014-8-23,90,77,67,50,39,26,45,27,13,29.82,29.68,13,7,23,0.00
2014-8-24,91,75,57,49,40,25,56,32,10,29.78,29.66,13,5,20,0.00
2014-8-25,86,72,55,51,38,16,60,34,8,29.83,29.73,13,6,22,0.00
2014-8-26,90,75,57,50,42,32,58,34,14,29.90,29.78,12,6,21,0.00
2014-8-27,99,78,56,48,41,28,54,30,10,29.97,29.85,11,3,18,0.00
2014-8-28,103,83,60,48,42,30,52,26,10,29.93,29.74,9,3,23,0.00
2014-8-29,103,83,60,44,37,23,46,22,7,29.78,29.64,9,3,17,0.00
2014-8-30,100,83,63,43,37,30,42,22,11,29.72,29.62,13,4,20,0.00
2014-8-31,98,84,72,42,36,15,30,20,6,29.70,29.61,12,5,18,0.00
2014-9-8,73,72,70,35,34,31,25,24,23,29.77,29.76,4,3,7,0.00
2014-9-9,93,76,58,43,29,1,44,22,3,29.85,29.71,10,4,17,0.00
2014-9-10,100,76,51,42,30,20,43,21,7,29.89,29.73,6,2,10,0.00
2014-9-11,68,64,58,38,33,29,47,32,24,29.81,29.79,3,1,5,0.00